Terminal Aerodrome Forecast
Issued by NWS Austin/San Antonio, TX

Home | Current Version | Previous Version | Text Only | Print | Product List | Glossary On
Versions: 1 2 3 4 5 6 7 8 9 10 11 12 13 14 15 16 17 18 19 20 21 22
000
FTUS44 KEWX 241255 AAB
TAFDRT
TAF AMD
KDRT 241255Z 2413/2512 11006KT 6SM BR BKN004
     FM241500 15008KT P6SM SCT015
     FM241700 20008KT P6SM SCT250
     FM250800 12008KT 3SM BR BKN005=

USA.gov is the U.S. government's official web portal to all federal, state and local government web resources and services.